createdAt,value
2019-05-11T00:01:37.022Z,3.03
2019-05-11T00:04:06.218Z,2.80
2019-05-11T00:06:35.988Z,3.20
2019-05-11T00:09:06.379Z,3.23
2019-05-11T00:11:36.378Z,3.03
2019-05-11T00:14:07.399Z,3.50
2019-05-11T00:16:36.645Z,3.40
2019-05-11T00:19:08.806Z,3.70
2019-05-11T00:21:38.093Z,2.87
2019-05-11T00:24:07.257Z,3.60
2019-05-11T00:26:39.397Z,3.57
2019-05-11T00:29:08.308Z,3.33
2019-05-11T00:31:37.572Z,3.50
2019-05-11T00:34:06.779Z,3.60
2019-05-11T00:36:42.994Z,3.57
2019-05-11T00:39:12.252Z,3.30
2019-05-11T00:41:41.460Z,3.20
2019-05-11T00:44:10.693Z,3.47
2019-05-11T00:46:41.053Z,3.30
2019-05-11T00:49:10.265Z,3.50
2019-05-11T00:51:41.238Z,3.50
2019-05-11T00:54:10.718Z,3.20
2019-05-11T00:56:41.613Z,3.70
2019-05-11T00:59:21.367Z,3.43
2019-05-11T01:01:41.899Z,3.27
2019-05-11T01:04:11.063Z,3.37
2019-05-11T01:06:40.302Z,3.50
2019-05-11T01:09:09.459Z,3.13
2019-05-11T01:11:40.294Z,3.07
2019-05-11T01:14:11.180Z,3.50
2019-05-11T01:16:41.661Z,3.17
2019-05-11T01:19:12.686Z,3.40
2019-05-11T01:21:41.860Z,3.47
2019-05-11T01:24:11.192Z,3.40
2019-05-11T01:26:40.420Z,3.37
2019-05-11T01:29:09.948Z,3.40
2019-05-11T01:31:39.187Z,3.50
2019-05-11T01:34:08.517Z,3.97
2019-05-11T01:36:37.726Z,3.10
2019-05-11T01:39:07.794Z,3.63
2019-05-11T01:41:36.992Z,3.03
2019-05-11T01:44:06.130Z,3.40
2019-05-11T01:46:35.438Z,3.20
2019-05-11T01:49:04.605Z,3.03
2019-05-11T01:51:33.766Z,3.27
2019-05-11T01:54:02.945Z,3.30
2019-05-11T01:56:32.110Z,2.70
2019-05-11T01:59:01.270Z,2.90
2019-05-11T02:01:30.528Z,3.23
2019-05-11T02:04:00.774Z,3.40
2019-05-11T02:06:29.873Z,3.10
2019-05-11T02:08:59.390Z,2.77
2019-05-11T02:11:28.499Z,2.83
2019-05-11T02:14:00.339Z,3.20
2019-05-11T02:16:30.803Z,3.27
2019-05-11T02:18:59.890Z,2.67
2019-05-11T02:21:31.607Z,3.20
2019-05-11T02:24:01.906Z,2.97
2019-05-11T02:26:32.466Z,3.20
2019-05-11T02:29:01.631Z,3.03
2019-05-11T02:31:30.826Z,2.97
2019-05-11T02:33:59.992Z,2.90
2019-05-11T02:36:29.146Z,3.63
2019-05-11T02:38:58.319Z,3.30
2019-05-11T02:41:36.177Z,2.70
2019-05-11T02:43:58.298Z,2.90
2019-05-11T02:46:27.469Z,3.10
2019-05-11T02:48:56.651Z,3.37
2019-05-11T02:51:25.818Z,3.27
2019-05-11T02:53:55.006Z,2.53
2019-05-11T02:56:24.187Z,3.47
2019-05-11T02:58:56.440Z,2.67
2019-05-11T03:01:25.635Z,2.87
2019-05-11T03:03:54.779Z,2.57
2019-05-11T03:06:23.974Z,2.70
2019-05-11T03:08:53.063Z,3.00
2019-05-11T03:11:22.303Z,2.60
2019-05-11T03:13:51.482Z,3.00
2019-05-11T03:16:22.133Z,2.87
2019-05-11T03:18:51.306Z,2.90
2019-05-11T03:21:20.488Z,2.83
2019-05-11T03:23:49.679Z,2.90
2019-05-11T03:26:18.903Z,2.53
2019-05-11T03:28:48.059Z,2.37
2019-05-11T03:31:17.479Z,2.30
2019-05-11T03:33:46.655Z,2.57
2019-05-11T03:36:15.814Z,2.33
2019-05-11T03:38:44.982Z,3.17
2019-05-11T03:41:14.143Z,2.73
2019-05-11T03:43:43.331Z,2.50
2019-05-11T03:46:12.531Z,2.50
2019-05-11T03:48:41.755Z,2.50
2019-05-11T03:51:10.929Z,2.60
2019-05-11T03:53:40.111Z,3.23
2019-05-11T03:56:09.288Z,2.80
2019-05-11T03:58:38.463Z,2.70
2019-05-11T04:01:07.707Z,2.57
2019-05-11T04:03:36.912Z,2.80
2019-05-11T04:06:06.142Z,2.53
2019-05-11T04:08:35.586Z,2.90
2019-05-11T04:11:04.780Z,3.40
2019-05-11T04:13:33.943Z,2.60
2019-05-11T04:16:03.141Z,2.60
2019-05-11T04:18:32.287Z,2.77
2019-05-11T04:21:01.451Z,2.70
2019-05-11T04:23:30.610Z,2.93
2019-05-11T04:25:59.818Z,2.63
2019-05-11T04:28:28.995Z,2.83
2019-05-11T04:30:58.159Z,2.77
2019-05-11T04:33:27.342Z,3.00
2019-05-11T04:35:56.502Z,3.03
2019-05-11T04:38:25.675Z,3.13
2019-05-11T04:40:54.850Z,2.87
2019-05-11T04:43:23.968Z,2.67
2019-05-11T04:45:53.333Z,2.80
2019-05-11T04:48:22.535Z,3.97
2019-05-11T04:50:51.720Z,2.60
2019-05-11T04:53:20.959Z,3.13
2019-05-11T04:55:50.248Z,2.80
2019-05-11T04:58:19.759Z,2.73
2019-05-11T05:00:48.938Z,2.60
2019-05-11T05:03:18.342Z,2.50
2019-05-11T05:05:47.463Z,2.87
2019-05-11T05:08:21.041Z,2.67
2019-05-11T05:10:52.455Z,2.70
2019-05-11T05:13:23.211Z,3.07
2019-05-11T05:15:50.042Z,2.50
2019-05-11T05:18:19.322Z,2.50
2019-05-11T05:20:48.605Z,2.90
2019-05-11T05:23:17.758Z,2.37
2019-05-11T05:25:46.932Z,2.47
2019-05-11T05:28:16.120Z,2.77
2019-05-11T05:30:45.382Z,2.80
2019-05-11T05:33:14.954Z,2.90
2019-05-11T05:35:44.117Z,2.13
2019-05-11T05:38:13.286Z,2.43
2019-05-11T05:40:42.454Z,2.50
2019-05-11T05:43:25.616Z,2.13
2019-05-11T05:45:42.545Z,2.53
2019-05-11T05:48:11.719Z,2.30
2019-05-11T05:50:40.910Z,1.83
2019-05-11T05:53:10.070Z,2.80
2019-05-11T05:55:39.245Z,3.00
2019-05-11T05:58:08.326Z,2.43
2019-05-11T06:00:37.494Z,2.77
2019-05-11T06:03:06.667Z,1.90
2019-05-11T06:05:35.826Z,2.30
2019-05-11T06:08:05.007Z,2.20
2019-05-11T06:10:34.189Z,2.20
2019-05-11T06:13:03.288Z,2.17
2019-05-11T06:15:32.463Z,2.00
2019-05-11T06:18:01.623Z,2.57
2019-05-11T06:20:30.810Z,2.67
2019-05-11T06:22:59.989Z,1.63
2019-05-11T06:25:29.187Z,2.50
2019-05-11T06:27:58.378Z,1.97
2019-05-11T06:30:27.534Z,1.83
2019-05-11T06:32:56.713Z,2.00
2019-05-11T06:35:25.895Z,2.17
2019-05-11T06:37:55.061Z,2.20
2019-05-11T06:40:24.335Z,2.17
2019-05-11T06:42:54.025Z,2.37
2019-05-11T06:45:23.206Z,2.23
2019-05-11T06:47:52.362Z,2.00
2019-05-11T06:50:21.579Z,2.20
2019-05-11T06:52:50.878Z,2.07
2019-05-11T06:55:20.077Z,2.40
2019-05-11T06:57:49.266Z,2.27
2019-05-11T07:00:20.283Z,2.13
2019-05-11T07:02:49.501Z,1.57
2019-05-11T07:05:18.638Z,2.33
2019-05-11T07:07:48.131Z,1.97
2019-05-11T07:10:17.566Z,1.80
2019-05-11T07:12:46.903Z,1.80
2019-05-11T07:15:16.121Z,2.50
2019-05-11T07:17:45.303Z,2.10
2019-05-11T07:20:14.482Z,1.70
2019-05-11T07:22:43.698Z,1.57
2019-05-11T07:25:12.862Z,1.80
2019-05-11T07:27:41.982Z,1.80
2019-05-11T07:30:11.154Z,1.80
2019-05-11T07:32:40.247Z,1.80
2019-05-11T07:35:09.460Z,1.60
2019-05-11T07:37:38.872Z,2.20
2019-05-11T07:40:08.705Z,1.60
2019-05-11T07:42:38.375Z,2.43
2019-05-11T07:45:08.857Z,1.90
2019-05-11T07:47:38.317Z,1.83
2019-05-11T07:50:08.236Z,1.90
2019-05-11T07:52:38.015Z,2.07
2019-05-11T07:55:08.510Z,1.90
2019-05-11T07:57:39.018Z,1.97
2019-05-11T08:00:08.751Z,2.00
2019-05-11T08:02:38.638Z,1.63
2019-05-11T08:05:08.801Z,1.50
2019-05-11T08:07:38.259Z,1.90
2019-05-11T08:10:08.309Z,1.93
2019-05-11T08:12:39.082Z,1.80
2019-05-11T08:15:12.948Z,1.57
2019-05-11T08:17:39.495Z,1.80
2019-05-11T08:20:09.205Z,2.03
2019-05-11T08:22:38.382Z,1.87
2019-05-11T08:25:09.215Z,1.63
2019-05-11T08:27:38.702Z,1.53
2019-05-11T08:30:09.071Z,1.47
2019-05-11T08:32:38.767Z,2.23
2019-05-11T08:35:14.614Z,2.00
2019-05-11T08:37:43.713Z,2.50
2019-05-11T08:40:12.814Z,1.87
2019-05-11T08:42:41.974Z,2.20
2019-05-11T08:45:20.170Z,1.87
2019-05-11T08:47:41.967Z,1.90
2019-05-11T08:50:11.071Z,2.30
2019-05-11T08:52:40.241Z,2.10
2019-05-11T08:55:09.407Z,2.13
2019-05-11T08:57:38.944Z,1.77
2019-05-11T09:00:08.598Z,1.60
2019-05-11T09:02:38.404Z,2.07
2019-05-11T09:05:08.261Z,2.03
2019-05-11T09:07:38.457Z,1.80
2019-05-11T09:10:08.245Z,1.90
2019-05-11T09:12:38.218Z,1.97
2019-05-11T09:15:08.806Z,2.10
2019-05-11T09:17:38.406Z,1.53
2019-05-11T09:20:08.700Z,1.87
2019-05-11T09:22:38.307Z,1.73
2019-05-11T09:25:08.855Z,1.90
2019-05-11T09:27:38.269Z,1.90
2019-05-11T09:30:08.264Z,1.67
2019-05-11T09:32:38.447Z,1.70
2019-05-11T09:35:08.409Z,1.87
2019-05-11T09:37:38.241Z,1.70
2019-05-11T09:40:08.003Z,1.90
2019-05-11T09:42:38.825Z,1.93
2019-05-11T09:45:08.312Z,2.07
2019-05-11T09:47:38.618Z,1.97
2019-05-11T09:50:08.690Z,1.63
2019-05-11T09:52:38.655Z,1.70
2019-05-11T09:55:08.771Z,2.17
2019-05-11T09:57:38.474Z,1.87
2019-05-11T10:00:08.832Z,1.67
2019-05-11T10:02:38.661Z,1.30
2019-05-11T10:05:08.755Z,1.80
2019-05-11T10:07:38.264Z,1.60
2019-05-11T10:10:09.216Z,1.73
2019-05-11T10:12:38.594Z,1.90
2019-05-11T10:15:08.526Z,1.60
2019-05-11T10:17:38.471Z,1.50
2019-05-11T10:20:09.209Z,1.67
2019-05-11T10:22:38.838Z,1.53
2019-05-11T10:25:08.940Z,2.07
2019-05-11T10:27:38.721Z,1.63
2019-05-11T10:30:08.280Z,1.53
2019-05-11T10:32:38.007Z,1.40
2019-05-11T10:35:08.192Z,1.53
2019-05-11T10:37:39.017Z,1.60
2019-05-11T10:40:09.658Z,1.80
2019-05-11T10:42:39.122Z,1.47
2019-05-11T10:45:09.106Z,1.50
2019-05-11T10:47:38.646Z,2.03
2019-05-11T10:50:08.555Z,1.50
2019-05-11T10:52:38.148Z,1.87
2019-05-11T10:55:08.726Z,1.93
2019-05-11T10:57:38.807Z,1.37
2019-05-11T11:00:08.566Z,1.80
2019-05-11T11:02:38.452Z,1.70
2019-05-11T11:05:08.305Z,1.93
2019-05-11T11:07:38.371Z,1.80
2019-05-11T11:10:08.831Z,1.63
2019-05-11T11:12:38.678Z,1.60
2019-05-11T11:15:09.318Z,1.57
2019-05-11T11:17:38.504Z,1.60
2019-05-11T11:20:08.598Z,1.67
2019-05-11T11:22:43.553Z,1.80
2019-05-11T11:25:08.866Z,1.30
2019-05-11T11:27:38.239Z,1.73
2019-05-11T11:30:09.225Z,1.40
2019-05-11T11:32:38.462Z,1.57
2019-05-11T11:35:08.597Z,1.77
2019-05-11T11:37:38.793Z,1.40
2019-05-11T11:40:08.506Z,1.70
2019-05-11T11:42:37.985Z,1.50
2019-05-11T11:45:08.093Z,1.60
2019-05-11T11:47:38.383Z,1.47
2019-05-11T11:50:09.156Z,1.60
2019-05-11T11:52:38.593Z,1.80
2019-05-11T11:55:08.406Z,1.87
2019-05-11T11:57:38.130Z,1.33
2019-05-11T12:00:09.090Z,1.20
2019-05-11T12:02:38.866Z,1.60
2019-05-11T12:05:08.966Z,1.60
2019-05-11T12:07:38.781Z,1.73
2019-05-11T12:10:08.236Z,1.80
2019-05-11T12:12:38.726Z,1.20
2019-05-11T12:15:08.922Z,1.30
2019-05-11T12:17:38.375Z,1.70
2019-05-11T12:20:09.035Z,1.50
2019-05-11T12:22:38.734Z,1.80
2019-05-11T12:25:08.143Z,1.23
2019-05-11T12:27:38.318Z,1.10
2019-05-11T12:30:09.167Z,1.30
2019-05-11T12:32:43.534Z,1.30
2019-05-11T12:35:12.707Z,1.40
2019-05-11T12:37:41.893Z,1.30
2019-05-11T12:40:11.106Z,1.17
2019-05-11T12:42:40.250Z,1.40
2019-05-11T12:45:09.454Z,1.50
2019-05-11T12:47:38.681Z,1.23
2019-05-11T12:50:08.826Z,1.20
2019-05-11T12:52:38.398Z,1.50
2019-05-11T12:55:08.693Z,1.00
2019-05-11T12:57:38.745Z,1.03
2019-05-11T13:00:08.810Z,1.50
2019-05-11T13:02:38.949Z,1.40
2019-05-11T13:05:08.642Z,1.20
2019-05-11T13:07:39.255Z,1.10
2019-05-11T13:10:08.741Z,1.37
2019-05-11T13:12:38.543Z,1.23
2019-05-11T13:15:08.494Z,1.10
2019-05-11T13:17:40.820Z,1.33
2019-05-11T13:20:09.156Z,1.30
2019-05-11T13:22:39.461Z,1.10
2019-05-11T13:25:08.724Z,1.27
2019-05-11T13:27:38.635Z,1.00
2019-05-11T13:30:08.315Z,0.80
2019-05-11T13:32:38.459Z,0.50
2019-05-11T13:35:09.101Z,0.60
2019-05-11T13:37:38.818Z,0.70
2019-05-11T13:40:08.306Z,0.80
2019-05-11T13:42:38.510Z,0.87
2019-05-11T13:45:08.557Z,1.07
2019-05-11T13:47:51.633Z,0.80
2019-05-11T13:50:08.855Z,1.20
2019-05-11T13:52:38.575Z,1.03
2019-05-11T13:55:08.058Z,0.73
2019-05-11T13:57:38.326Z,1.10
2019-05-11T14:00:08.375Z,0.93
2019-05-11T14:02:38.138Z,1.00
2019-05-11T14:05:08.877Z,1.30
2019-05-11T14:07:38.390Z,0.83
2019-05-11T14:10:08.134Z,0.90
2019-05-11T14:12:38.577Z,1.10
2019-05-11T14:15:08.691Z,1.10
2019-05-11T14:17:38.096Z,1.03
2019-05-11T14:20:08.806Z,1.10
2019-05-11T14:22:38.782Z,1.20
2019-05-11T14:25:08.220Z,1.00
2019-05-11T14:27:39.109Z,1.00
2019-05-11T14:30:08.653Z,1.30
2019-05-11T14:32:38.948Z,1.23
2019-05-11T14:35:12.110Z,0.77
2019-05-11T14:37:39.321Z,1.10
2019-05-11T14:40:08.970Z,0.87
2019-05-11T14:42:38.452Z,1.10
2019-05-11T14:45:08.631Z,0.87
2019-05-11T14:47:38.735Z,0.97
2019-05-11T14:50:08.914Z,0.80
2019-05-11T14:52:38.796Z,0.70
2019-05-11T14:55:08.466Z,0.77
2019-05-11T14:57:39.719Z,1.10
2019-05-11T15:00:08.499Z,0.90
2019-05-11T15:02:49.153Z,1.00
2019-05-11T15:05:18.328Z,1.00
2019-05-11T15:07:48.451Z,0.90
2019-05-11T15:10:18.994Z,1.07
2019-05-11T15:12:48.891Z,1.00
2019-05-11T15:15:18.787Z,0.90
2019-05-11T15:17:49.291Z,0.80
2019-05-11T15:20:19.006Z,1.07
2019-05-11T15:22:48.848Z,2.93
2019-05-11T15:25:19.536Z,4.03
2019-05-11T15:27:49.118Z,6.13
2019-05-11T15:30:18.496Z,1.50
2019-05-11T15:32:48.422Z,1.07
2019-05-11T15:35:18.889Z,1.30
2019-05-11T15:37:48.692Z,1.10
2019-05-11T15:40:19.196Z,1.00
2019-05-11T15:42:48.821Z,1.00
2019-05-11T15:45:18.800Z,1.23
2019-05-11T15:47:48.873Z,1.03
2019-05-11T15:50:19.138Z,1.17
2019-05-11T15:52:48.909Z,1.13
2019-05-11T15:55:21.770Z,1.00
2019-05-11T15:57:53.973Z,1.17
2019-05-11T16:00:24.013Z,1.10
2019-05-11T16:02:53.190Z,0.90
2019-05-11T16:05:23.674Z,1.20
2019-05-11T16:08:14.755Z,1.10
2019-05-11T16:10:48.879Z,1.40
2019-05-11T16:13:20.302Z,1.00
2019-05-11T16:15:49.477Z,1.23
2019-05-11T16:18:19.079Z,0.93
2019-05-11T16:20:51.663Z,1.13
2019-05-11T16:23:24.386Z,1.20
2019-05-11T16:25:53.622Z,0.87
2019-05-11T16:28:23.999Z,1.20
2019-05-11T16:30:53.198Z,1.00
2019-05-11T16:33:22.306Z,1.00
2019-05-11T16:35:58.017Z,0.80
2019-05-11T16:38:31.993Z,1.07
2019-05-11T16:41:02.274Z,0.93
2019-05-11T16:43:31.465Z,1.00
2019-05-11T16:46:00.550Z,0.93
2019-05-11T16:48:29.785Z,0.97
2019-05-11T16:50:59.018Z,1.17
2019-05-11T16:53:28.571Z,0.90
2019-05-11T16:56:00.576Z,0.90
2019-05-11T16:58:29.725Z,0.80
2019-05-11T17:01:02.744Z,1.03
2019-05-11T17:03:31.959Z,1.10
2019-05-11T17:06:04.173Z,0.90
2019-05-11T17:08:33.359Z,1.10
2019-05-11T17:11:02.581Z,1.10
2019-05-11T17:13:33.120Z,1.07
2019-05-11T17:16:02.245Z,1.30
2019-05-11T17:18:31.430Z,1.20
2019-05-11T17:21:02.291Z,1.30
2019-05-11T17:23:33.894Z,1.00
2019-05-11T17:26:04.266Z,1.00
2019-05-11T17:28:33.473Z,1.27
2019-05-11T17:31:03.121Z,1.03
2019-05-11T17:33:32.446Z,0.90
2019-05-11T17:36:01.630Z,1.60
2019-05-11T17:38:30.802Z,1.10
2019-05-11T17:41:00.030Z,0.97
2019-05-11T17:43:29.246Z,0.90
2019-05-11T17:45:58.650Z,1.30
2019-05-11T17:48:28.349Z,1.10
2019-05-11T17:50:59.686Z,1.17
2019-05-11T17:53:28.929Z,1.23
2019-05-11T17:56:02.143Z,1.00
2019-05-11T17:58:41.999Z,1.03
2019-05-11T18:01:12.938Z,1.03
2019-05-11T18:03:44.234Z,0.90
2019-05-11T18:06:13.749Z,1.17
2019-05-11T18:08:44.875Z,1.20
2019-05-11T18:11:13.850Z,1.20
2019-05-11T18:13:43.598Z,1.37
2019-05-11T18:16:12.822Z,1.60
2019-05-11T18:18:42.010Z,1.60
2019-05-11T18:21:11.110Z,1.40
2019-05-11T18:23:40.310Z,1.10
2019-05-11T18:26:09.495Z,1.40
2019-05-11T18:28:41.750Z,1.23
2019-05-11T18:31:13.167Z,1.50
2019-05-11T18:33:42.360Z,0.70
2019-05-11T18:36:18.150Z,1.20
2019-05-11T18:38:56.763Z,1.50
2019-05-11T18:41:35.426Z,1.10
2019-05-11T18:44:04.702Z,1.10
2019-05-11T18:46:33.866Z,1.20
2019-05-11T18:49:03.060Z,1.57
2019-05-11T18:51:34.877Z,1.20
2019-05-11T18:54:04.071Z,1.40
2019-05-11T18:56:38.240Z,1.23
2019-05-11T18:59:08.891Z,1.43
2019-05-11T19:01:38.369Z,1.30
2019-05-11T19:04:18.421Z,1.30
2019-05-11T19:06:49.949Z,1.37
2019-05-11T19:09:20.457Z,1.70
2019-05-11T19:11:51.343Z,1.40
2019-05-11T19:14:22.577Z,1.70
2019-05-11T19:16:57.810Z,1.70
2019-05-11T19:19:34.578Z,1.57
2019-05-11T19:22:04.910Z,2.13
2019-05-11T19:24:34.089Z,1.80
2019-05-11T19:27:03.296Z,1.33
2019-05-11T19:29:32.495Z,1.40
2019-05-11T19:32:03.639Z,1.40
2019-05-11T19:34:32.452Z,1.43
2019-05-11T19:37:03.341Z,1.30
2019-05-11T19:39:32.537Z,1.40
2019-05-11T19:42:01.711Z,1.40
2019-05-11T19:44:34.682Z,1.40
2019-05-11T19:47:05.905Z,1.40
2019-05-11T19:49:34.767Z,1.40
2019-05-11T19:52:05.273Z,1.30
2019-05-11T19:54:38.288Z,2.07
2019-05-11T19:57:08.374Z,1.50
2019-05-11T19:59:42.050Z,1.47
2019-05-11T20:02:17.704Z,1.33
2019-05-11T20:04:45.058Z,1.33
2019-05-11T20:07:17.694Z,1.53
2019-05-11T20:09:45.135Z,1.70
2019-05-11T20:12:14.306Z,1.43
2019-05-11T20:14:43.481Z,1.77
2019-05-11T20:17:12.617Z,1.40
2019-05-11T20:19:41.847Z,1.80
2019-05-11T20:22:11.019Z,1.30
2019-05-11T20:24:40.198Z,1.70
2019-05-11T20:27:09.449Z,2.20
2019-05-11T20:29:38.633Z,1.77
2019-05-11T20:32:08.130Z,1.90
2019-05-11T20:34:38.131Z,1.83
2019-05-11T20:37:07.799Z,1.70
2019-05-11T20:39:37.905Z,1.50
2019-05-11T20:42:08.726Z,1.70
2019-05-11T20:44:38.114Z,1.50
2019-05-11T20:47:07.332Z,1.97
2019-05-11T20:49:38.534Z,1.90
2019-05-11T20:52:08.673Z,1.50
2019-05-11T20:54:38.575Z,1.57
2019-05-11T20:57:08.960Z,1.53
2019-05-11T20:59:38.253Z,1.70
2019-05-11T21:02:09.314Z,1.33
2019-05-11T21:04:38.621Z,2.00
2019-05-11T21:07:08.476Z,1.80
2019-05-11T21:09:41.126Z,1.67
2019-05-11T21:12:10.278Z,2.17
2019-05-11T21:14:39.482Z,1.87
2019-05-11T21:17:09.119Z,1.87
2019-05-11T21:19:39.751Z,1.93
2019-05-11T21:22:09.317Z,2.03
2019-05-11T21:24:38.489Z,1.80
2019-05-11T21:27:07.694Z,1.73
2019-05-11T21:29:38.725Z,1.87
2019-05-11T21:32:12.202Z,2.17
2019-05-11T21:34:43.588Z,2.20
2019-05-11T21:37:12.782Z,1.83
2019-05-11T21:39:41.984Z,2.30
2019-05-11T21:42:11.143Z,2.27
2019-05-11T21:44:40.326Z,2.03
2019-05-11T21:47:09.501Z,1.77
2019-05-11T21:49:38.668Z,1.77
2019-05-11T21:52:07.910Z,1.83
2019-05-11T21:54:38.649Z,2.10
2019-05-11T21:57:08.412Z,1.87
2019-05-11T21:59:39.462Z,1.87
2019-05-11T22:02:11.093Z,2.10
2019-05-11T22:04:39.474Z,2.10
2019-05-11T22:07:08.599Z,2.00
2019-05-11T22:09:38.436Z,2.33
2019-05-11T22:12:10.897Z,1.63
2019-05-11T22:14:38.832Z,2.10
2019-05-11T22:17:08.007Z,1.90
2019-05-11T22:19:40.261Z,2.00
2019-05-11T22:22:21.536Z,1.77
2019-05-11T22:24:38.886Z,1.77
2019-05-11T22:27:08.152Z,2.37
2019-05-11T22:29:37.898Z,2.00
2019-05-11T22:32:07.234Z,2.00
2019-05-11T22:34:37.825Z,1.60
2019-05-11T22:37:08.620Z,1.60
2019-05-11T22:39:37.934Z,1.70
2019-05-11T22:42:07.955Z,1.90
2019-05-11T22:44:38.638Z,1.80
2019-05-11T22:47:08.975Z,1.90
2019-05-11T22:49:38.253Z,2.20
2019-05-11T22:52:08.630Z,2.00
2019-05-11T22:54:38.349Z,2.10
2019-05-11T22:57:08.174Z,2.10
2019-05-11T22:59:38.520Z,2.27
2019-05-11T23:02:10.731Z,2.10
2019-05-11T23:04:38.682Z,2.00
2019-05-11T23:07:08.056Z,1.87
2019-05-11T23:09:38.204Z,1.77
2019-05-11T23:12:09.023Z,2.00
2019-05-11T23:14:38.612Z,2.10
2019-05-11T23:17:08.186Z,1.80
2019-05-11T23:19:38.171Z,2.17
2019-05-11T23:22:08.357Z,2.03
2019-05-11T23:24:37.617Z,2.30
2019-05-11T23:27:08.004Z,2.03
2019-05-11T23:29:38.375Z,1.60
2019-05-11T23:32:08.680Z,2.63
2019-05-11T23:34:38.736Z,2.63
2019-05-11T23:37:08.098Z,2.47
2019-05-11T23:39:38.751Z,2.20
2019-05-11T23:42:08.177Z,2.20
2019-05-11T23:44:37.525Z,2.20
2019-05-11T23:47:07.374Z,2.30
2019-05-11T23:49:36.548Z,1.77
2019-05-11T23:52:07.646Z,1.90
2019-05-11T23:54:38.214Z,2.10
2019-05-11T23:57:09.313Z,1.90
2019-05-11T23:59:38.425Z,2.20
